sensor_id;sensor_type;location;lat;lon;timestamp;temperature;humidity
66708;DHT22;53622;0.000;0.000;2023-02-28T00:00:11;19.20;40.90
66708;DHT22;53622;0.000;0.000;2023-02-28T00:02:43;19.20;40.90
66708;DHT22;53622;0.000;0.000;2023-02-28T00:05:15;19.20;40.90
66708;DHT22;53622;0.000;0.000;2023-02-28T00:07:45;19.20;41.00
66708;DHT22;53622;0.000;0.000;2023-02-28T00:10:16;19.20;41.00
66708;DHT22;53622;0.000;0.000;2023-02-28T00:12:48;19.20;41.10
66708;DHT22;53622;0.000;0.000;2023-02-28T00:15:18;19.20;41.00
66708;DHT22;53622;0.000;0.000;2023-02-28T00:17:47;19.20;41.00
66708;DHT22;53622;0.000;0.000;2023-02-28T00:20:18;19.10;41.00
66708;DHT22;53622;0.000;0.000;2023-02-28T00:22:49;19.10;40.90
66708;DHT22;53622;0.000;0.000;2023-02-28T00:25:22;19.10;40.90
66708;DHT22;53622;0.000;0.000;2023-02-28T00:27:52;19.10;40.90
66708;DHT22;53622;0.000;0.000;2023-02-28T00:30:23;19.10;41.00
66708;DHT22;53622;0.000;0.000;2023-02-28T00:32:52;19.10;41.00
66708;DHT22;53622;0.000;0.000;2023-02-28T00:35:23;19.10;41.00
66708;DHT22;53622;0.000;0.000;2023-02-28T00:37:52;19.10;41.10
66708;DHT22;53622;0.000;0.000;2023-02-28T00:40:21;19.10;41.00
66708;DHT22;53622;0.000;0.000;2023-02-28T00:42:51;19.10;41.00
66708;DHT22;53622;0.000;0.000;2023-02-28T00:45:20;19.10;41.00
66708;DHT22;53622;0.000;0.000;2023-02-28T00:47:49;19.00;41.00
66708;DHT22;53622;0.000;0.000;2023-02-28T00:50:20;19.00;41.00
66708;DHT22;53622;0.000;0.000;2023-02-28T00:52:50;19.00;41.00
66708;DHT22;53622;0.000;0.000;2023-02-28T00:55:20;19.00;41.00
66708;DHT22;53622;0.000;0.000;2023-02-28T00:57:49;19.00;41.00
66708;DHT22;53622;0.000;0.000;2023-02-28T01:00:19;19.00;41.00
66708;DHT22;53622;0.000;0.000;2023-02-28T01:02:50;19.00;41.00
66708;DHT22;53622;0.000;0.000;2023-02-28T01:05:19;19.00;41.00
66708;DHT22;53622;0.000;0.000;2023-02-28T01:07:50;19.00;41.00
66708;DHT22;53622;0.000;0.000;2023-02-28T01:10:19;19.00;41.00
66708;DHT22;53622;0.000;0.000;2023-02-28T01:12:49;18.90;41.10
66708;DHT22;53622;0.000;0.000;2023-02-28T01:15:18;18.90;41.00
66708;DHT22;53622;0.000;0.000;2023-02-28T01:17:48;18.90;41.00
66708;DHT22;53622;0.000;0.000;2023-02-28T01:20:17;18.90;41.00
66708;DHT22;53622;0.000;0.000;2023-02-28T01:22:47;18.90;41.00
66708;DHT22;53622;0.000;0.000;2023-02-28T01:25:17;18.90;41.00
66708;DHT22;53622;0.000;0.000;2023-02-28T01:27:47;18.90;41.00
66708;DHT22;53622;0.000;0.000;2023-02-28T01:30:16;18.90;41.00
66708;DHT22;53622;0.000;0.000;2023-02-28T01:32:47;18.90;41.10
66708;DHT22;53622;0.000;0.000;2023-02-28T01:35:18;18.90;41.10
66708;DHT22;53622;0.000;0.000;2023-02-28T01:37:48;18.90;41.10
66708;DHT22;53622;0.000;0.000;2023-02-28T01:40:18;18.90;41.10
66708;DHT22;53622;0.000;0.000;2023-02-28T01:42:48;18.90;41.00
66708;DHT22;53622;0.000;0.000;2023-02-28T01:45:22;18.80;41.00
66708;DHT22;53622;0.000;0.000;2023-02-28T01:47:55;18.80;41.00
66708;DHT22;53622;0.000;0.000;2023-02-28T01:50:29;18.80;41.00
66708;DHT22;53622;0.000;0.000;2023-02-28T01:53:03;18.80;41.10
66708;DHT22;53622;0.000;0.000;2023-02-28T01:55:35;18.80;41.10
66708;DHT22;53622;0.000;0.000;2023-02-28T01:58:05;18.80;41.10
66708;DHT22;53622;0.000;0.000;2023-02-28T02:00:36;18.80;41.10
66708;DHT22;53622;0.000;0.000;2023-02-28T02:03:12;18.80;41.10
66708;DHT22;53622;0.000;0.000;2023-02-28T02:05:44;18.80;41.10
66708;DHT22;53622;0.000;0.000;2023-02-28T02:08:17;18.80;41.10
66708;DHT22;53622;0.000;0.000;2023-02-28T02:10:51;18.80;41.10
66708;DHT22;53622;0.000;0.000;2023-02-28T02:13:34;18.70;41.10
66708;DHT22;53622;0.000;0.000;2023-02-28T02:16:16;18.70;41.10
66708;DHT22;53622;0.000;0.000;2023-02-28T02:18:50;18.70;41.10
66708;DHT22;53622;0.000;0.000;2023-02-28T02:21:43;18.70;41.10
66708;DHT22;53622;0.000;0.000;2023-02-28T02:24:41;18.70;41.10
66708;DHT22;53622;0.000;0.000;2023-02-28T02:27:24;18.70;41.20
66708;DHT22;53622;0.000;0.000;2023-02-28T02:33:29;18.70;41.20
66708;DHT22;53622;0.000;0.000;2023-02-28T02:36:13;18.70;41.20
66708;DHT22;53622;0.000;0.000;2023-02-28T02:38:50;18.60;41.10
66708;DHT22;53622;0.000;0.000;2023-02-28T02:41:25;18.60;41.10
66708;DHT22;53622;0.000;0.000;2023-02-28T02:44:02;18.60;41.10
66708;DHT22;53622;0.000;0.000;2023-02-28T02:46:38;18.60;41.10
66708;DHT22;53622;0.000;0.000;2023-02-28T02:49:11;18.60;41.10
66708;DHT22;53622;0.000;0.000;2023-02-28T02:51:44;18.60;41.10
66708;DHT22;53622;0.000;0.000;2023-02-28T02:54:19;18.60;41.10
66708;DHT22;53622;0.000;0.000;2023-02-28T02:56:50;18.60;41.10
66708;DHT22;53622;0.000;0.000;2023-02-28T02:59:21;18.60;41.10
66708;DHT22;53622;0.000;0.000;2023-02-28T03:01:53;18.60;41.10
66708;DHT22;53622;0.000;0.000;2023-02-28T03:04:25;18.60;41.10
66708;DHT22;53622;0.000;0.000;2023-02-28T03:06:58;18.60;41.10
66708;DHT22;53622;0.000;0.000;2023-02-28T03:09:27;18.60;41.10
66708;DHT22;53622;0.000;0.000;2023-02-28T03:11:57;18.60;41.10
66708;DHT22;53622;0.000;0.000;2023-02-28T03:14:36;18.60;41.10
66708;DHT22;53622;0.000;0.000;2023-02-28T03:17:24;18.60;41.10
66708;DHT22;53622;0.000;0.000;2023-02-28T03:20:04;18.50;41.10
66708;DHT22;53622;0.000;0.000;2023-02-28T03:22:46;18.60;41.10
66708;DHT22;53622;0.000;0.000;2023-02-28T03:25:27;18.50;41.10
66708;DHT22;53622;0.000;0.000;2023-02-28T03:28:03;18.50;41.10
66708;DHT22;53622;0.000;0.000;2023-02-28T03:30:40;18.50;41.10
66708;DHT22;53622;0.000;0.000;2023-02-28T03:33:13;18.50;41.10
66708;DHT22;53622;0.000;0.000;2023-02-28T03:35:48;18.50;41.10
66708;DHT22;53622;0.000;0.000;2023-02-28T03:38:24;18.50;41.10
66708;DHT22;53622;0.000;0.000;2023-02-28T03:40:59;18.50;41.10
66708;DHT22;53622;0.000;0.000;2023-02-28T03:43:32;18.50;41.10
66708;DHT22;53622;0.000;0.000;2023-02-28T03:46:08;18.50;41.10
66708;DHT22;53622;0.000;0.000;2023-02-28T03:48:42;18.50;41.10
66708;DHT22;53622;0.000;0.000;2023-02-28T03:51:16;18.50;41.10
66708;DHT22;53622;0.000;0.000;2023-02-28T03:53:50;18.50;41.10
66708;DHT22;53622;0.000;0.000;2023-02-28T03:56:22;18.50;41.10
66708;DHT22;53622;0.000;0.000;2023-02-28T03:58:57;18.50;41.10
66708;DHT22;53622;0.000;0.000;2023-02-28T04:01:31;18.40;41.10
66708;DHT22;53622;0.000;0.000;2023-02-28T04:04:04;18.40;41.20
66708;DHT22;53622;0.000;0.000;2023-02-28T04:06:34;18.40;41.10
66708;DHT22;53622;0.000;0.000;2023-02-28T04:09:06;18.40;41.10
66708;DHT22;53622;0.000;0.000;2023-02-28T04:11:37;18.40;41.10
66708;DHT22;53622;0.000;0.000;2023-02-28T04:14:08;18.40;41.10
66708;DHT22;53622;0.000;0.000;2023-02-28T04:16:39;18.40;41.10
66708;DHT22;53622;0.000;0.000;2023-02-28T04:19:10;18.40;41.10
66708;DHT22;53622;0.000;0.000;2023-02-28T04:21:42;18.40;41.10
66708;DHT22;53622;0.000;0.000;2023-02-28T04:24:17;18.40;41.10
66708;DHT22;53622;0.000;0.000;2023-02-28T04:26:48;18.40;41.10
66708;DHT22;53622;0.000;0.000;2023-02-28T04:29:20;18.40;41.10
66708;DHT22;53622;0.000;0.000;2023-02-28T04:31:50;18.40;41.10
66708;DHT22;53622;0.000;0.000;2023-02-28T04:34:21;18.40;41.10
66708;DHT22;53622;0.000;0.000;2023-02-28T04:36:51;18.40;41.10
66708;DHT22;53622;0.000;0.000;2023-02-28T04:39:41;18.40;41.20
66708;DHT22;53622;0.000;0.000;2023-02-28T04:42:10;18.40;41.10
66708;DHT22;53622;0.000;0.000;2023-02-28T04:44:40;18.30;41.10
66708;DHT22;53622;0.000;0.000;2023-02-28T04:47:09;18.30;41.10
66708;DHT22;53622;0.000;0.000;2023-02-28T04:49:38;18.30;41.10
66708;DHT22;53622;0.000;0.000;2023-02-28T04:52:09;18.30;41.10
66708;DHT22;53622;0.000;0.000;2023-02-28T04:54:39;18.30;41.10
66708;DHT22;53622;0.000;0.000;2023-02-28T04:57:09;18.30;41.10
66708;DHT22;53622;0.000;0.000;2023-02-28T04:59:38;18.30;41.10
66708;DHT22;53622;0.000;0.000;2023-02-28T05:02:07;18.30;41.10
66708;DHT22;53622;0.000;0.000;2023-02-28T05:04:36;18.30;41.10
66708;DHT22;53622;0.000;0.000;2023-02-28T05:07:06;18.30;41.10
66708;DHT22;53622;0.000;0.000;2023-02-28T05:09:35;18.30;41.10
66708;DHT22;53622;0.000;0.000;2023-02-28T05:12:06;18.30;41.00
66708;DHT22;53622;0.000;0.000;2023-02-28T05:14:36;18.30;41.30
66708;DHT22;53622;0.000;0.000;2023-02-28T05:17:05;18.30;41.50
66708;DHT22;53622;0.000;0.000;2023-02-28T05:19:34;18.30;41.70
66708;DHT22;53622;0.000;0.000;2023-02-28T05:22:04;18.30;42.10
66708;DHT22;53622;0.000;0.000;2023-02-28T05:24:33;18.40;42.60
66708;DHT22;53622;0.000;0.000;2023-02-28T05:27:02;18.60;42.70
66708;DHT22;53622;0.000;0.000;2023-02-28T05:29:33;18.70;42.70
66708;DHT22;53622;0.000;0.000;2023-02-28T05:32:10;18.90;42.80
66708;DHT22;53622;0.000;0.000;2023-02-28T05:34:39;19.10;42.70
66708;DHT22;53622;0.000;0.000;2023-02-28T05:37:12;19.20;42.50
66708;DHT22;53622;0.000;0.000;2023-02-28T05:39:42;19.40;42.50
66708;DHT22;53622;0.000;0.000;2023-02-28T05:42:11;19.50;42.30
66708;DHT22;53622;0.000;0.000;2023-02-28T05:44:42;19.60;42.10
66708;DHT22;53622;0.000;0.000;2023-02-28T05:47:11;19.70;42.00
66708;DHT22;53622;0.000;0.000;2023-02-28T05:49:43;19.80;41.90
66708;DHT22;53622;0.000;0.000;2023-02-28T05:52:12;19.90;41.70
66708;DHT22;53622;0.000;0.000;2023-02-28T05:54:41;20.00;41.60
66708;DHT22;53622;0.000;0.000;2023-02-28T05:57:11;20.10;41.50
66708;DHT22;53622;0.000;0.000;2023-02-28T05:59:52;20.20;41.30
66708;DHT22;53622;0.000;0.000;2023-02-28T06:02:22;20.30;41.80
66708;DHT22;53622;0.000;0.000;2023-02-28T06:04:51;20.30;41.30
66708;DHT22;53622;0.000;0.000;2023-02-28T06:07:21;20.30;41.50
66708;DHT22;53622;0.000;0.000;2023-02-28T06:09:51;20.10;40.90
66708;DHT22;53622;0.000;0.000;2023-02-28T06:12:20;20.00;40.70
66708;DHT22;53622;0.000;0.000;2023-02-28T06:14:49;19.90;40.70
66708;DHT22;53622;0.000;0.000;2023-02-28T06:17:20;19.80;40.60
66708;DHT22;53622;0.000;0.000;2023-02-28T06:19:49;19.70;40.70
66708;DHT22;53622;0.000;0.000;2023-02-28T06:22:18;19.60;40.80
66708;DHT22;53622;0.000;0.000;2023-02-28T06:24:47;19.50;40.80
66708;DHT22;53622;0.000;0.000;2023-02-28T06:27:17;19.50;41.00
66708;DHT22;53622;0.000;0.000;2023-02-28T06:29:47;19.40;41.10
66708;DHT22;53622;0.000;0.000;2023-02-28T06:32:16;19.40;41.20
66708;DHT22;53622;0.000;0.000;2023-02-28T06:34:47;19.30;41.10
66708;DHT22;53622;0.000;0.000;2023-02-28T06:37:16;19.30;41.20
66708;DHT22;53622;0.000;0.000;2023-02-28T06:39:46;19.20;41.20
66708;DHT22;53622;0.000;0.000;2023-02-28T06:42:15;19.20;41.30
66708;DHT22;53622;0.000;0.000;2023-02-28T06:44:44;19.20;41.30
66708;DHT22;53622;0.000;0.000;2023-02-28T06:47:13;19.10;41.20
66708;DHT22;53622;0.000;0.000;2023-02-28T06:49:42;19.10;41.30
66708;DHT22;53622;0.000;0.000;2023-02-28T06:52:14;19.10;41.30
66708;DHT22;53622;0.000;0.000;2023-02-28T06:54:43;19.10;41.20
66708;DHT22;53622;0.000;0.000;2023-02-28T06:57:13;19.00;41.30
66708;DHT22;53622;0.000;0.000;2023-02-28T06:59:42;19.00;41.20
66708;DHT22;53622;0.000;0.000;2023-02-28T07:02:11;18.90;41.20
66708;DHT22;53622;0.000;0.000;2023-02-28T07:04:40;18.90;41.30
66708;DHT22;53622;0.000;0.000;2023-02-28T07:07:14;18.90;41.30
66708;DHT22;53622;0.000;0.000;2023-02-28T07:09:43;18.90;41.30
66708;DHT22;53622;0.000;0.000;2023-02-28T07:12:13;18.80;41.30
66708;DHT22;53622;0.000;0.000;2023-02-28T07:14:42;18.80;41.30
66708;DHT22;53622;0.000;0.000;2023-02-28T07:17:11;18.80;41.30
66708;DHT22;53622;0.000;0.000;2023-02-28T07:19:41;18.80;41.30
66708;DHT22;53622;0.000;0.000;2023-02-28T07:22:10;18.70;41.20
66708;DHT22;53622;0.000;0.000;2023-02-28T07:24:43;18.70;41.20
66708;DHT22;53622;0.000;0.000;2023-02-28T07:27:13;18.70;41.30
66708;DHT22;53622;0.000;0.000;2023-02-28T07:29:53;18.60;41.20
66708;DHT22;53622;0.000;0.000;2023-02-28T07:32:22;18.60;41.30
66708;DHT22;53622;0.000;0.000;2023-02-28T07:34:52;18.60;41.30
66708;DHT22;53622;0.000;0.000;2023-02-28T07:37:21;18.70;41.40
66708;DHT22;53622;0.000;0.000;2023-02-28T07:39:52;18.60;41.30
66708;DHT22;53622;0.000;0.000;2023-02-28T07:42:21;18.60;41.30
66708;DHT22;53622;0.000;0.000;2023-02-28T07:44:51;18.60;41.30
66708;DHT22;53622;0.000;0.000;2023-02-28T07:47:21;18.60;41.30
66708;DHT22;53622;0.000;0.000;2023-02-28T07:49:52;18.60;41.30
66708;DHT22;53622;0.000;0.000;2023-02-28T07:52:21;18.50;41.20
66708;DHT22;53622;0.000;0.000;2023-02-28T07:54:53;18.50;41.20
66708;DHT22;53622;0.000;0.000;2023-02-28T07:57:22;18.50;41.30
66708;DHT22;53622;0.000;0.000;2023-02-28T07:59:52;18.50;41.30
66708;DHT22;53622;0.000;0.000;2023-02-28T08:02:21;18.50;41.30
66708;DHT22;53622;0.000;0.000;2023-02-28T08:04:50;18.50;41.30
66708;DHT22;53622;0.000;0.000;2023-02-28T08:07:19;18.50;41.30
66708;DHT22;53622;0.000;0.000;2023-02-28T08:09:49;18.50;41.40
66708;DHT22;53622;0.000;0.000;2023-02-28T08:12:19;18.50;41.30
66708;DHT22;53622;0.000;0.000;2023-02-28T08:14:49;18.40;41.30
66708;DHT22;53622;0.000;0.000;2023-02-28T08:17:18;18.40;41.30
66708;DHT22;53622;0.000;0.000;2023-02-28T08:19:47;18.40;41.40
66708;DHT22;53622;0.000;0.000;2023-02-28T08:22:16;18.40;41.40
66708;DHT22;53622;0.000;0.000;2023-02-28T08:24:46;18.40;41.40
66708;DHT22;53622;0.000;0.000;2023-02-28T08:27:15;18.40;41.40
66708;DHT22;53622;0.000;0.000;2023-02-28T08:29:46;18.40;41.40
66708;DHT22;53622;0.000;0.000;2023-02-28T08:32:15;18.40;41.40
66708;DHT22;53622;0.000;0.000;2023-02-28T08:34:57;18.40;41.40
66708;DHT22;53622;0.000;0.000;2023-02-28T08:37:26;18.40;41.40
66708;DHT22;53622;0.000;0.000;2023-02-28T08:39:55;18.40;41.40
66708;DHT22;53622;0.000;0.000;2023-02-28T08:42:24;18.30;41.30
66708;DHT22;53622;0.000;0.000;2023-02-28T08:44:55;18.30;41.40
66708;DHT22;53622;0.000;0.000;2023-02-28T08:47:24;18.30;41.30
66708;DHT22;53622;0.000;0.000;2023-02-28T08:49:54;18.30;41.30
66708;DHT22;53622;0.000;0.000;2023-02-28T08:52:23;18.30;41.40
66708;DHT22;53622;0.000;0.000;2023-02-28T08:54:52;18.30;41.40
66708;DHT22;53622;0.000;0.000;2023-02-28T08:57:22;18.30;41.40
66708;DHT22;53622;0.000;0.000;2023-02-28T08:59:55;18.30;41.40
66708;DHT22;53622;0.000;0.000;2023-02-28T09:02:24;18.30;41.40
66708;DHT22;53622;0.000;0.000;2023-02-28T09:04:54;18.30;41.40
66708;DHT22;53622;0.000;0.000;2023-02-28T09:07:23;18.30;41.30
66708;DHT22;53622;0.000;0.000;2023-02-28T09:09:52;18.30;41.30
66708;DHT22;53622;0.000;0.000;2023-02-28T09:12:26;18.30;41.40
66708;DHT22;53622;0.000;0.000;2023-02-28T09:14:57;18.30;41.30
66708;DHT22;53622;0.000;0.000;2023-02-28T09:17:27;18.30;41.40
66708;DHT22;53622;0.000;0.000;2023-02-28T09:19:57;18.30;41.40
66708;DHT22;53622;0.000;0.000;2023-02-28T09:22:27;18.30;41.40
66708;DHT22;53622;0.000;0.000;2023-02-28T09:24:56;18.30;41.40
66708;DHT22;53622;0.000;0.000;2023-02-28T09:27:25;18.20;41.40
66708;DHT22;53622;0.000;0.000;2023-02-28T09:29:54;18.20;41.40
66708;DHT22;53622;0.000;0.000;2023-02-28T09:32:25;18.20;41.40
66708;DHT22;53622;0.000;0.000;2023-02-28T09:34:55;18.20;41.40
66708;DHT22;53622;0.000;0.000;2023-02-28T09:37:24;18.20;41.50
66708;DHT22;53622;0.000;0.000;2023-02-28T09:39:57;18.20;41.40
66708;DHT22;53622;0.000;0.000;2023-02-28T09:42:32;18.20;41.40
66708;DHT22;53622;0.000;0.000;2023-02-28T09:45:06;18.20;41.40
66708;DHT22;53622;0.000;0.000;2023-02-28T09:47:42;18.20;41.30
66708;DHT22;53622;0.000;0.000;2023-02-28T09:50:20;18.20;41.50
66708;DHT22;53622;0.000;0.000;2023-02-28T09:52:51;18.20;41.60
66708;DHT22;53622;0.000;0.000;2023-02-28T09:55:24;18.30;41.60
66708;DHT22;53622;0.000;0.000;2023-02-28T09:58:00;18.50;41.70
66708;DHT22;53622;0.000;0.000;2023-02-28T10:00:32;18.60;41.60
66708;DHT22;53622;0.000;0.000;2023-02-28T10:06:04;19.00;41.40
66708;DHT22;53622;0.000;0.000;2023-02-28T10:08:38;19.20;41.20
66708;DHT22;53622;0.000;0.000;2023-02-28T10:11:16;19.30;41.10
66708;DHT22;53622;0.000;0.000;2023-02-28T10:13:54;19.40;40.90
66708;DHT22;53622;0.000;0.000;2023-02-28T10:16:32;19.60;40.80
66708;DHT22;53622;0.000;0.000;2023-02-28T10:19:09;19.60;40.60
66708;DHT22;53622;0.000;0.000;2023-02-28T10:21:46;19.80;40.60
66708;DHT22;53622;0.000;0.000;2023-02-28T10:24:21;19.90;40.50
66708;DHT22;53622;0.000;0.000;2023-02-28T10:26:53;20.00;40.30
66708;DHT22;53622;0.000;0.000;2023-02-28T10:29:26;20.10;40.20
66708;DHT22;53622;0.000;0.000;2023-02-28T10:31:55;20.20;40.20
66708;DHT22;53622;0.000;0.000;2023-02-28T10:34:26;20.20;40.10
66708;DHT22;53622;0.000;0.000;2023-02-28T10:36:56;20.30;40.00
66708;DHT22;53622;0.000;0.000;2023-02-28T10:39:37;20.40;39.90
66708;DHT22;53622;0.000;0.000;2023-02-28T10:42:20;20.50;40.10
66708;DHT22;53622;0.000;0.000;2023-02-28T10:44:50;20.50;40.60
66708;DHT22;53622;0.000;0.000;2023-02-28T10:47:34;20.50;40.80
66708;DHT22;53622;0.000;0.000;2023-02-28T10:50:27;20.50;40.50
66708;DHT22;53622;0.000;0.000;2023-02-28T10:53:07;20.50;40.60
66708;DHT22;53622;0.000;0.000;2023-02-28T10:55:40;20.50;40.70
66708;DHT22;53622;0.000;0.000;2023-02-28T10:58:21;20.50;40.00
66708;DHT22;53622;0.000;0.000;2023-02-28T11:00:51;20.50;41.60
66708;DHT22;53622;0.000;0.000;2023-02-28T11:03:29;20.50;40.00
66708;DHT22;53622;0.000;0.000;2023-02-28T11:06:06;20.40;40.30
66708;DHT22;53622;0.000;0.000;2023-02-28T11:08:45;20.40;40.30
66708;DHT22;53622;0.000;0.000;2023-02-28T11:11:15;20.30;40.20
66708;DHT22;53622;0.000;0.000;2023-02-28T11:13:46;20.30;40.70
66708;DHT22;53622;0.000;0.000;2023-02-28T11:16:17;20.30;41.40
66708;DHT22;53622;0.000;0.000;2023-02-28T11:18:49;20.30;42.00
66708;DHT22;53622;0.000;0.000;2023-02-28T11:21:28;20.40;41.60
66708;DHT22;53622;0.000;0.000;2023-02-28T11:24:03;20.50;41.70
66708;DHT22;53622;0.000;0.000;2023-02-28T11:26:38;20.50;41.70
66708;DHT22;53622;0.000;0.000;2023-02-28T11:29:18;20.60;41.60
66708;DHT22;53622;0.000;0.000;2023-02-28T11:32:12;20.60;42.20
66708;DHT22;53622;0.000;0.000;2023-02-28T11:34:43;20.60;41.70
66708;DHT22;53622;0.000;0.000;2023-02-28T11:37:16;20.70;41.50
66708;DHT22;53622;0.000;0.000;2023-02-28T11:39:47;20.70;41.30
66708;DHT22;53622;0.000;0.000;2023-02-28T11:42:44;20.80;41.20
66708;DHT22;53622;0.000;0.000;2023-02-28T11:45:24;20.80;41.00
66708;DHT22;53622;0.000;0.000;2023-02-28T11:48:04;20.90;40.90
66708;DHT22;53622;0.000;0.000;2023-02-28T11:50:45;21.00;40.90
66708;DHT22;53622;0.000;0.000;2023-02-28T11:53:22;21.10;40.70
66708;DHT22;53622;0.000;0.000;2023-02-28T11:55:59;21.10;40.70
66708;DHT22;53622;0.000;0.000;2023-02-28T11:58:38;21.20;40.50
66708;DHT22;53622;0.000;0.000;2023-02-28T12:01:28;21.20;40.20
66708;DHT22;53622;0.000;0.000;2023-02-28T12:04:09;21.30;40.00
66708;DHT22;53622;0.000;0.000;2023-02-28T12:06:45;21.40;39.90
66708;DHT22;53622;0.000;0.000;2023-02-28T12:09:39;21.40;39.60
66708;DHT22;53622;0.000;0.000;2023-02-28T12:12:30;21.50;39.50
66708;DHT22;53622;0.000;0.000;2023-02-28T12:15:20;21.50;39.40
66708;DHT22;53622;0.000;0.000;2023-02-28T12:18:06;21.60;39.30
66708;DHT22;53622;0.000;0.000;2023-02-28T12:20:45;21.60;39.20
66708;DHT22;53622;0.000;0.000;2023-02-28T12:23:26;21.70;39.10
66708;DHT22;53622;0.000;0.000;2023-02-28T12:26:14;21.70;39.00
66708;DHT22;53622;0.000;0.000;2023-02-28T12:28:49;21.70;38.90
66708;DHT22;53622;0.000;0.000;2023-02-28T12:31:23;21.80;38.90
66708;DHT22;53622;0.000;0.000;2023-02-28T12:33:56;21.80;38.80
66708;DHT22;53622;0.000;0.000;2023-02-28T12:36:28;22.00;38.80
66708;DHT22;53622;0.000;0.000;2023-02-28T12:39:01;22.00;38.60
66708;DHT22;53622;0.000;0.000;2023-02-28T12:41:37;22.00;38.50
66708;DHT22;53622;0.000;0.000;2023-02-28T12:44:11;21.90;38.50
66708;DHT22;53622;0.000;0.000;2023-02-28T12:46:43;21.90;38.60
66708;DHT22;53622;0.000;0.000;2023-02-28T12:49:16;21.90;38.50
66708;DHT22;53622;0.000;0.000;2023-02-28T12:51:47;21.90;38.50
66708;DHT22;53622;0.000;0.000;2023-02-28T12:54:23;21.90;38.50
66708;DHT22;53622;0.000;0.000;2023-02-28T12:57:02;21.90;38.50
66708;DHT22;53622;0.000;0.000;2023-02-28T12:59:38;21.90;38.40
66708;DHT22;53622;0.000;0.000;2023-02-28T13:05:27;22.00;38.40
66708;DHT22;53622;0.000;0.000;2023-02-28T13:10:51;22.00;38.20
66708;DHT22;53622;0.000;0.000;2023-02-28T13:13:26;22.00;38.10
66708;DHT22;53622;0.000;0.000;2023-02-28T13:16:05;22.00;38.20
66708;DHT22;53622;0.000;0.000;2023-02-28T13:18:37;22.00;38.20
66708;DHT22;53622;0.000;0.000;2023-02-28T13:21:08;22.00;38.10
66708;DHT22;53622;0.000;0.000;2023-02-28T13:24:01;22.00;38.10
66708;DHT22;53622;0.000;0.000;2023-02-28T13:29:39;22.10;38.00
66708;DHT22;53622;0.000;0.000;2023-02-28T13:38:33;22.10;37.90
66708;DHT22;53622;0.000;0.000;2023-02-28T13:44:24;22.10;37.90
66708;DHT22;53622;0.000;0.000;2023-02-28T13:47:23;22.10;38.50
66708;DHT22;53622;0.000;0.000;2023-02-28T13:49:53;22.20;37.90
66708;DHT22;53622;0.000;0.000;2023-02-28T13:52:23;22.20;37.90
66708;DHT22;53622;0.000;0.000;2023-02-28T13:55:18;22.20;37.90
66708;DHT22;53622;0.000;0.000;2023-02-28T13:58:05;22.20;37.70
66708;DHT22;53622;0.000;0.000;2023-02-28T14:01:01;22.20;37.80
66708;DHT22;53622;0.000;0.000;2023-02-28T14:03:45;22.20;37.70
66708;DHT22;53622;0.000;0.000;2023-02-28T14:06:23;22.00;37.60
66708;DHT22;53622;0.000;0.000;2023-02-28T14:08:58;21.90;37.80
66708;DHT22;53622;0.000;0.000;2023-02-28T14:11:33;21.70;38.20
66708;DHT22;53622;0.000;0.000;2023-02-28T14:16:54;21.30;37.30
66708;DHT22;53622;0.000;0.000;2023-02-28T14:19:28;21.20;37.80
66708;DHT22;53622;0.000;0.000;2023-02-28T14:22:09;21.10;38.40
66708;DHT22;53622;0.000;0.000;2023-02-28T14:25:08;20.90;38.70
66708;DHT22;53622;0.000;0.000;2023-02-28T14:27:47;20.80;38.80
66708;DHT22;53622;0.000;0.000;2023-02-28T14:30:45;20.70;38.90
66708;DHT22;53622;0.000;0.000;2023-02-28T14:33:23;20.70;39.10
66708;DHT22;53622;0.000;0.000;2023-02-28T14:36:03;20.60;39.30
66708;DHT22;53622;0.000;0.000;2023-02-28T14:38:37;20.50;39.30
66708;DHT22;53622;0.000;0.000;2023-02-28T14:41:20;20.40;39.30
66708;DHT22;53622;0.000;0.000;2023-02-28T14:43:54;20.30;39.40
66708;DHT22;53622;0.000;0.000;2023-02-28T14:46:26;20.30;39.30
66708;DHT22;53622;0.000;0.000;2023-02-28T14:48:57;20.20;39.30
66708;DHT22;53622;0.000;0.000;2023-02-28T14:51:28;20.10;39.30
66708;DHT22;53622;0.000;0.000;2023-02-28T14:54:00;20.10;39.40
66708;DHT22;53622;0.000;0.000;2023-02-28T14:56:34;20.10;39.40
66708;DHT22;53622;0.000;0.000;2023-02-28T14:59:06;20.10;39.50
66708;DHT22;53622;0.000;0.000;2023-02-28T15:02:18;20.00;39.50
66708;DHT22;53622;0.000;0.000;2023-02-28T15:04:58;20.00;39.60
66708;DHT22;53622;0.000;0.000;2023-02-28T15:07:29;19.90;39.60
66708;DHT22;53622;0.000;0.000;2023-02-28T15:10:17;19.90;39.70
66708;DHT22;53622;0.000;0.000;2023-02-28T15:12:52;19.90;39.70
66708;DHT22;53622;0.000;0.000;2023-02-28T15:15:26;19.80;39.80
66708;DHT22;53622;0.000;0.000;2023-02-28T15:18:18;19.80;39.70
66708;DHT22;53622;0.000;0.000;2023-02-28T15:20:51;19.70;39.70
66708;DHT22;53622;0.000;0.000;2023-02-28T15:23:22;19.70;39.80
66708;DHT22;53622;0.000;0.000;2023-02-28T15:25:52;19.70;39.90
66708;DHT22;53622;0.000;0.000;2023-02-28T15:28:23;19.70;39.90
66708;DHT22;53622;0.000;0.000;2023-02-28T15:30:56;19.60;39.90
66708;DHT22;53622;0.000;0.000;2023-02-28T15:33:28;19.60;39.90
66708;DHT22;53622;0.000;0.000;2023-02-28T15:36:06;19.60;39.90
66708;DHT22;53622;0.000;0.000;2023-02-28T15:38:37;19.50;39.90
66708;DHT22;53622;0.000;0.000;2023-02-28T15:41:22;19.50;40.00
66708;DHT22;53622;0.000;0.000;2023-02-28T15:44:14;19.50;40.00
66708;DHT22;53622;0.000;0.000;2023-02-28T15:46:53;19.50;40.00
66708;DHT22;53622;0.000;0.000;2023-02-28T15:49:23;19.40;40.00
66708;DHT22;53622;0.000;0.000;2023-02-28T15:51:54;19.40;40.10
66708;DHT22;53622;0.000;0.000;2023-02-28T15:54:28;19.40;40.10
66708;DHT22;53622;0.000;0.000;2023-02-28T15:57:03;19.40;40.10
66708;DHT22;53622;0.000;0.000;2023-02-28T15:59:35;19.30;40.10
66708;DHT22;53622;0.000;0.000;2023-02-28T16:02:16;19.30;40.20
66708;DHT22;53622;0.000;0.000;2023-02-28T16:05:19;19.30;40.20
66708;DHT22;53622;0.000;0.000;2023-02-28T16:07:56;19.30;40.20
66708;DHT22;53622;0.000;0.000;2023-02-28T16:10:28;19.20;40.20
66708;DHT22;53622;0.000;0.000;2023-02-28T16:12:58;19.20;40.50
66708;DHT22;53622;0.000;0.000;2023-02-28T16:15:29;19.20;40.50
66708;DHT22;53622;0.000;0.000;2023-02-28T16:18:00;19.20;40.50
66708;DHT22;53622;0.000;0.000;2023-02-28T16:20:31;19.20;40.60
66708;DHT22;53622;0.000;0.000;2023-02-28T16:23:00;19.20;40.70
66708;DHT22;53622;0.000;0.000;2023-02-28T16:25:36;19.20;40.70
66708;DHT22;53622;0.000;0.000;2023-02-28T16:28:08;19.10;40.70
66708;DHT22;53622;0.000;0.000;2023-02-28T16:30:41;19.10;40.70
66708;DHT22;53622;0.000;0.000;2023-02-28T16:33:10;19.10;40.80
66708;DHT22;53622;0.000;0.000;2023-02-28T16:35:40;19.10;40.80
66708;DHT22;53622;0.000;0.000;2023-02-28T16:38:09;19.10;40.70
66708;DHT22;53622;0.000;0.000;2023-02-28T16:40:40;19.10;41.40
66708;DHT22;53622;0.000;0.000;2023-02-28T16:43:13;19.10;40.80
66708;DHT22;53622;0.000;0.000;2023-02-28T16:45:44;19.10;41.10
66708;DHT22;53622;0.000;0.000;2023-02-28T16:48:15;19.20;41.10
66708;DHT22;53622;0.000;0.000;2023-02-28T16:50:45;19.40;41.00
66708;DHT22;53622;0.000;0.000;2023-02-28T16:53:14;19.60;40.90